KBEA

Beeville Municipal Airport

Beeville, Texas, USA
METAR KBEA 170255Z AUTO 34007KT 10SM OVC010 11/10 A3020 RMK AO2 T01090098
Observed Flight Rules
Oct-17 @ 02:55 UTC (14 minutes ago) Marginal Visual Flight Rules
Wind Visibility Clouds
340° at 7 knots 10 miles
  • Overcast at 1,000' AGL
Temperatures Readings
Current 11°C / 52°F
Dewpoint 10°C / 50°F
Humidity 94%
Altimeter 30.2" Hg
Pressure 1023 hPa
Elevation 82
METAR KBEA 170255Z AUTO 34007KT 10SM OVC010 11/10 A3020 RMK AO2 T01090098
Observed Flight Rules
Oct-17 @ 02:55 UTC
(14 minutes ago)
MVFR
Wind Visibility
340° at 7 knots 10 miles
Clouds
  • Overcast at 1,000' AGL
Temperature Dewpoint
11°C / 52°F 10°C / 50°F
Humidity Altimeter Pressure
94% 30.2" Hg 1023 hPa